createdAt,value
2023-03-18T00:01:38.678Z,12.30
2023-03-18T00:04:06.894Z,12.40
2023-03-18T00:06:38.170Z,12.30
2023-03-18T00:09:06.961Z,12.30
2023-03-18T00:11:35.931Z,12.40
2023-03-18T00:14:04.418Z,12.30
2023-03-18T00:16:32.377Z,12.30
2023-03-18T00:19:01.832Z,12.30
2023-03-18T00:21:30.554Z,12.30
2023-03-18T00:24:00.643Z,12.30
2023-03-18T00:26:29.837Z,12.30
2023-03-18T00:28:58.524Z,12.30
2023-03-18T00:31:27.665Z,12.40
2023-03-18T00:33:55.763Z,12.30
2023-03-18T00:36:25.801Z,12.30
2023-03-18T00:38:57.642Z,12.30
2023-03-18T00:41:28.132Z,12.30
2023-03-18T00:43:56.638Z,12.30
2023-03-18T00:46:25.532Z,12.20
2023-03-18T00:48:54.384Z,12.20
2023-03-18T00:51:23.266Z,12.20
2023-03-18T00:53:55.398Z,12.20
2023-03-18T00:56:29.453Z,12.10
2023-03-18T00:59:00.065Z,12.10
2023-03-18T01:01:29.930Z,12.10
2023-03-18T01:03:57.981Z,12.10
2023-03-18T01:06:26.676Z,12.00
2023-03-18T01:08:55.359Z,12.00
2023-03-18T01:11:23.698Z,12.00
2023-03-18T01:13:53.313Z,11.90
2023-03-18T01:16:21.876Z,11.90
2023-03-18T01:18:52.327Z,11.90
2023-03-18T01:21:20.568Z,11.90
2023-03-18T01:23:48.588Z,11.90
2023-03-18T01:26:16.773Z,11.90
2023-03-18T01:28:44.896Z,11.80
2023-03-18T01:31:15.326Z,11.90
2023-03-18T01:33:43.383Z,11.80
2023-03-18T01:36:11.555Z,11.80
2023-03-18T01:38:40.817Z,11.80
2023-03-18T01:41:09.194Z,11.70
2023-03-18T01:43:38.746Z,11.70
2023-03-18T01:46:22.185Z,11.70
2023-03-18T01:48:52.031Z,11.70
2023-03-18T01:51:23.000Z,11.70
2023-03-18T01:53:51.708Z,11.70
2023-03-18T01:56:20.080Z,11.70
2023-03-18T01:58:57.416Z,11.70
2023-03-18T02:01:27.726Z,11.70
2023-03-18T02:03:59.872Z,11.60
2023-03-18T02:06:30.887Z,11.60
2023-03-18T02:09:01.430Z,11.60
2023-03-18T02:11:31.936Z,11.60
2023-03-18T02:14:00.778Z,11.60
2023-03-18T02:16:31.263Z,11.60
2023-03-18T02:19:07.367Z,11.60
2023-03-18T02:21:42.528Z,11.60
2023-03-18T02:24:15.771Z,11.60
2023-03-18T02:26:48.117Z,11.60
2023-03-18T02:29:18.353Z,11.60
2023-03-18T02:31:46.731Z,11.60
2023-03-18T02:34:15.492Z,11.60
2023-03-18T02:36:43.721Z,11.60
2023-03-18T02:39:13.927Z,11.60
2023-03-18T02:41:41.923Z,10.70
2023-03-18T02:44:11.033Z,11.60
2023-03-18T02:46:45.644Z,11.60
2023-03-18T02:49:14.370Z,11.60
2023-03-18T02:51:42.450Z,11.60
2023-03-18T02:54:11.942Z,11.50
2023-03-18T02:56:41.223Z,11.50
2023-03-18T02:59:09.627Z,11.50
2023-03-18T03:01:38.156Z,11.50
2023-03-18T03:04:08.032Z,11.60
2023-03-18T03:06:36.678Z,11.50
2023-03-18T03:09:05.295Z,11.50
2023-03-18T03:11:33.510Z,11.50
2023-03-18T03:14:01.519Z,11.50
2023-03-18T03:16:29.553Z,11.50
2023-03-18T03:18:57.487Z,11.50
2023-03-18T03:21:27.702Z,11.50
2023-03-18T03:23:55.753Z,11.50
2023-03-18T03:26:25.659Z,11.50
2023-03-18T03:28:53.729Z,11.50
2023-03-18T03:31:21.782Z,11.50
2023-03-18T03:33:49.802Z,11.50
2023-03-18T03:36:19.441Z,11.40
2023-03-18T03:38:48.976Z,11.40
2023-03-18T03:41:18.547Z,11.40
2023-03-18T03:43:46.642Z,11.40
2023-03-18T03:46:17.362Z,11.40
2023-03-18T03:48:45.430Z,11.40
2023-03-18T03:51:15.961Z,11.40
2023-03-18T03:53:48.698Z,11.40
2023-03-18T03:56:17.475Z,11.40
2023-03-18T03:58:45.776Z,11.30
2023-03-18T04:01:13.805Z,11.30
2023-03-18T04:03:42.377Z,11.30
2023-03-18T04:06:11.182Z,11.30
2023-03-18T04:08:39.218Z,11.30
2023-03-18T04:11:09.746Z,11.30
2023-03-18T04:13:41.048Z,11.30
2023-03-18T04:16:09.609Z,11.20
2023-03-18T04:18:37.592Z,11.20
2023-03-18T04:21:05.989Z,11.20
2023-03-18T04:23:34.142Z,11.20
2023-03-18T04:26:02.155Z,11.20
2023-03-18T04:28:31.469Z,11.10
2023-03-18T04:30:59.713Z,11.10
2023-03-18T04:33:27.905Z,11.10
2023-03-18T04:35:55.926Z,11.00
2023-03-18T04:38:23.906Z,11.00
2023-03-18T04:40:52.705Z,10.90
2023-03-18T04:43:21.108Z,10.90
2023-03-18T04:45:50.422Z,10.90
2023-03-18T04:48:18.402Z,10.90
2023-03-18T04:50:46.350Z,10.90
2023-03-18T04:53:14.664Z,10.90
2023-03-18T04:55:43.508Z,10.90
2023-03-18T04:58:12.258Z,10.80
2023-03-18T05:00:40.249Z,10.70
2023-03-18T05:03:10.511Z,10.70
2023-03-18T05:05:38.877Z,10.70
2023-03-18T05:08:07.513Z,10.70
2023-03-18T05:10:36.085Z,10.70
2023-03-18T05:13:06.997Z,10.70
2023-03-18T05:15:35.322Z,10.70
2023-03-18T05:18:06.332Z,10.70
2023-03-18T05:20:37.446Z,10.70
2023-03-18T05:23:08.415Z,10.70
2023-03-18T05:25:36.375Z,10.70
2023-03-18T05:28:04.440Z,10.70
2023-03-18T05:30:33.765Z,10.60
2023-03-18T05:33:01.806Z,10.60
2023-03-18T05:35:30.275Z,10.60
2023-03-18T05:37:59.841Z,10.60
2023-03-18T05:40:29.480Z,10.60
2023-03-18T05:42:57.492Z,10.60
2023-03-18T05:45:25.626Z,10.60
2023-03-18T05:47:53.790Z,10.60
2023-03-18T05:50:29.999Z,10.60
2023-03-18T05:52:58.106Z,10.60
2023-03-18T05:55:28.314Z,10.60
2023-03-18T05:57:56.445Z,10.50
2023-03-18T06:00:25.235Z,10.60
2023-03-18T06:02:53.955Z,10.50
2023-03-18T06:05:22.198Z,10.50
2023-03-18T06:07:50.378Z,10.50
2023-03-18T06:10:18.552Z,10.50
2023-03-18T06:12:48.207Z,10.60
2023-03-18T06:15:16.333Z,10.50
2023-03-18T06:17:44.314Z,10.50
2023-03-18T06:20:14.223Z,10.60
2023-03-18T06:22:43.691Z,10.50
2023-03-18T06:25:11.898Z,10.50
2023-03-18T06:27:39.885Z,10.50
2023-03-18T06:30:12.033Z,10.60
2023-03-18T06:32:40.216Z,10.80
2023-03-18T06:35:08.843Z,10.60
2023-03-18T06:37:36.857Z,10.60
2023-03-18T06:40:05.992Z,10.60
2023-03-18T06:42:33.978Z,10.60
2023-03-18T06:45:02.125Z,10.60
2023-03-18T06:47:31.495Z,10.60
2023-03-18T06:49:59.745Z,10.60
2023-03-18T06:52:28.296Z,10.60
2023-03-18T06:54:56.341Z,10.60
2023-03-18T06:57:24.442Z,10.60
2023-03-18T06:59:52.517Z,10.60
2023-03-18T07:02:23.485Z,10.60
2023-03-18T07:04:54.039Z,10.60
2023-03-18T07:07:22.209Z,10.60
2023-03-18T07:09:50.753Z,10.60
2023-03-18T07:12:19.317Z,10.60
2023-03-18T07:14:49.643Z,10.50
2023-03-18T07:17:17.804Z,10.60
2023-03-18T07:19:46.943Z,10.60
2023-03-18T07:22:17.381Z,10.60
2023-03-18T07:24:45.557Z,10.60
2023-03-18T07:27:14.545Z,10.70
2023-03-18T07:29:42.666Z,10.60
2023-03-18T07:32:10.750Z,10.70
2023-03-18T07:34:38.890Z,10.70
2023-03-18T07:37:06.946Z,10.70
2023-03-18T07:39:37.366Z,10.70
2023-03-18T07:42:05.621Z,10.70
2023-03-18T07:44:36.046Z,10.70
2023-03-18T07:47:04.494Z,10.70
2023-03-18T07:49:32.884Z,10.70
2023-03-18T07:52:02.096Z,10.70
2023-03-18T07:54:30.111Z,10.70
2023-03-18T07:56:59.482Z,10.70
2023-03-18T07:59:27.477Z,10.70
2023-03-18T08:01:55.538Z,10.80
2023-03-18T08:04:23.833Z,10.80
2023-03-18T08:06:51.910Z,10.80
2023-03-18T08:09:19.988Z,10.80
2023-03-18T08:11:48.021Z,10.80
2023-03-18T08:14:17.585Z,10.80
2023-03-18T08:16:45.636Z,10.80
2023-03-18T08:19:13.805Z,10.90
2023-03-18T08:21:43.317Z,10.80
2023-03-18T08:24:11.968Z,10.90
2023-03-18T08:26:40.104Z,10.90
2023-03-18T08:29:08.150Z,10.90
2023-03-18T08:31:37.588Z,11.00
2023-03-18T08:34:05.602Z,11.00
2023-03-18T08:36:33.579Z,11.00
2023-03-18T08:39:02.929Z,11.00
2023-03-18T08:41:30.900Z,11.10
2023-03-18T08:43:59.068Z,11.10
2023-03-18T08:46:27.076Z,11.20
2023-03-18T08:48:56.501Z,11.20
2023-03-18T08:51:24.711Z,11.20
2023-03-18T08:53:52.687Z,11.30
2023-03-18T08:56:20.667Z,11.30
2023-03-18T08:58:49.437Z,11.40
2023-03-18T09:01:20.291Z,11.50
2023-03-18T09:03:49.829Z,11.50
2023-03-18T09:06:19.495Z,11.60
2023-03-18T09:08:47.823Z,11.70
2023-03-18T09:11:16.157Z,11.80
2023-03-18T09:13:44.256Z,11.80
2023-03-18T09:16:12.875Z,11.90
2023-03-18T09:18:43.992Z,12.00
2023-03-18T09:21:12.617Z,12.00
2023-03-18T09:23:43.150Z,12.10
2023-03-18T09:26:14.895Z,12.10
2023-03-18T09:28:43.054Z,12.20
2023-03-18T09:31:11.078Z,12.20
2023-03-18T09:33:41.797Z,12.30
2023-03-18T09:36:10.483Z,12.40
2023-03-18T09:38:38.524Z,12.40
2023-03-18T09:41:16.493Z,12.50
2023-03-18T09:43:53.377Z,12.50
2023-03-18T09:46:28.073Z,12.50
2023-03-18T09:49:02.103Z,12.60
2023-03-18T09:51:37.301Z,12.60
2023-03-18T09:54:09.686Z,12.50
2023-03-18T09:56:40.056Z,12.60
2023-03-18T09:59:14.796Z,12.60
2023-03-18T10:01:43.938Z,12.60
2023-03-18T10:04:15.137Z,12.60
2023-03-18T10:06:44.760Z,12.60
2023-03-18T10:09:17.597Z,12.60
2023-03-18T10:11:47.872Z,12.60
2023-03-18T10:14:28.219Z,12.60
2023-03-18T10:17:02.419Z,12.70
2023-03-18T10:19:30.401Z,12.70
2023-03-18T10:22:07.101Z,12.70
2023-03-18T10:24:37.951Z,12.70
2023-03-18T10:27:15.256Z,12.70
2023-03-18T10:29:45.258Z,12.80
2023-03-18T10:32:18.637Z,12.80
2023-03-18T10:34:52.429Z,12.80
2023-03-18T10:37:24.955Z,12.80
2023-03-18T10:39:53.361Z,12.90
2023-03-18T10:42:24.186Z,12.90
2023-03-18T10:44:52.838Z,12.90
2023-03-18T10:47:23.420Z,13.00
2023-03-18T10:49:58.332Z,13.00
2023-03-18T10:52:32.090Z,13.10
2023-03-18T10:55:00.044Z,13.10
2023-03-18T10:57:32.589Z,13.10
2023-03-18T11:00:00.648Z,13.20
2023-03-18T11:02:32.491Z,13.20
2023-03-18T11:05:04.359Z,13.20
2023-03-18T11:07:33.271Z,13.20
2023-03-18T11:10:12.484Z,13.30
2023-03-18T11:12:43.529Z,13.30
2023-03-18T11:15:12.802Z,13.30
2023-03-18T11:17:41.599Z,13.40
2023-03-18T11:20:20.956Z,13.40
2023-03-18T11:22:50.683Z,13.50
2023-03-18T11:25:20.079Z,13.50
2023-03-18T11:27:51.283Z,13.60
2023-03-18T11:30:40.567Z,13.60
2023-03-18T11:33:14.638Z,13.70
2023-03-18T11:35:47.236Z,13.70
2023-03-18T11:38:16.019Z,13.80
2023-03-18T11:40:44.674Z,13.80
2023-03-18T11:43:18.872Z,13.90
2023-03-18T11:45:50.176Z,13.90
2023-03-18T11:48:20.048Z,13.90
2023-03-18T11:50:55.370Z,13.90
2023-03-18T11:53:26.170Z,13.90
2023-03-18T11:55:57.101Z,14.00
2023-03-18T11:58:38.687Z,14.00
2023-03-18T12:01:11.998Z,14.00
2023-03-18T12:03:57.872Z,14.10
2023-03-18T12:06:26.247Z,14.10
2023-03-18T12:09:01.085Z,14.10
2023-03-18T12:11:36.165Z,14.20
2023-03-18T12:14:11.195Z,14.30
2023-03-18T12:16:44.908Z,14.40
2023-03-18T12:19:25.660Z,14.50
2023-03-18T12:21:59.048Z,14.60
2023-03-18T12:24:33.715Z,14.70
2023-03-18T12:27:04.734Z,14.80
2023-03-18T12:29:45.980Z,14.70
2023-03-18T12:32:19.992Z,14.80
2023-03-18T12:35:00.258Z,14.80
2023-03-18T12:37:34.388Z,15.00
2023-03-18T12:40:12.584Z,15.20
2023-03-18T12:42:55.635Z,15.40
2023-03-18T12:45:26.660Z,15.50
2023-03-18T12:47:58.527Z,15.50
2023-03-18T12:50:28.299Z,15.50
2023-03-18T12:52:57.135Z,15.60
2023-03-18T12:55:27.894Z,15.70
2023-03-18T12:58:00.500Z,15.80
2023-03-18T13:00:32.086Z,15.90
2023-03-18T13:03:06.887Z,16.10
2023-03-18T13:05:42.740Z,16.20
2023-03-18T13:08:25.247Z,16.40
2023-03-18T13:10:57.199Z,16.60
2023-03-18T13:13:27.775Z,16.80
2023-03-18T13:15:57.170Z,17.00
2023-03-18T13:18:28.737Z,17.40
2023-03-18T13:20:58.758Z,17.60
2023-03-18T13:23:36.495Z,17.80
2023-03-18T13:26:09.738Z,18.00
2023-03-18T13:28:53.529Z,18.00
2023-03-18T13:31:28.584Z,18.00
2023-03-18T13:34:05.076Z,18.10
2023-03-18T13:36:47.308Z,18.30
2023-03-18T13:39:24.427Z,18.30
2023-03-18T13:42:03.795Z,18.70
2023-03-18T13:44:35.095Z,18.80
2023-03-18T13:47:09.093Z,18.90
2023-03-18T13:49:39.520Z,19.20
2023-03-18T13:52:22.847Z,19.50
2023-03-18T13:54:51.604Z,19.60
2023-03-18T13:57:32.311Z,19.60
2023-03-18T14:00:14.880Z,19.40
2023-03-18T14:02:45.668Z,19.10
2023-03-18T14:05:30.396Z,18.90
2023-03-18T14:08:02.066Z,19.10
2023-03-18T14:10:30.336Z,19.20
2023-03-18T14:13:18.419Z,19.50
2023-03-18T14:15:46.578Z,19.70
2023-03-18T14:18:27.709Z,19.50
2023-03-18T14:20:59.716Z,19.30
2023-03-18T14:23:35.523Z,19.20
2023-03-18T14:26:08.582Z,19.10
2023-03-18T14:28:40.477Z,18.90
2023-03-18T14:31:29.330Z,18.70
2023-03-18T14:34:02.792Z,18.50
2023-03-18T14:37:04.389Z,18.40
2023-03-18T14:39:33.482Z,18.10
2023-03-18T14:42:04.888Z,18.00
2023-03-18T14:44:35.577Z,17.90
2023-03-18T14:47:05.402Z,18.50
2023-03-18T14:49:42.442Z,19.50
2023-03-18T14:52:18.239Z,20.20
2023-03-18T14:54:46.556Z,20.20
2023-03-18T14:57:14.548Z,20.00
2023-03-18T14:59:42.889Z,20.30
2023-03-18T15:02:16.692Z,20.30
2023-03-18T15:04:54.830Z,20.30
2023-03-18T15:07:26.429Z,20.30
2023-03-18T15:09:55.100Z,20.50
2023-03-18T15:12:26.856Z,20.50
2023-03-18T15:14:54.806Z,20.20
2023-03-18T15:17:25.919Z,19.80
2023-03-18T15:20:00.125Z,19.30
2023-03-18T15:22:30.712Z,19.00
2023-03-18T15:25:01.318Z,18.80
2023-03-18T15:27:30.687Z,18.80
2023-03-18T15:29:59.499Z,19.00
2023-03-18T15:32:28.502Z,19.20
2023-03-18T15:34:59.034Z,19.40
2023-03-18T15:37:33.537Z,19.40
2023-03-18T15:40:16.181Z,19.50
2023-03-18T15:42:46.013Z,19.30
2023-03-18T15:45:18.590Z,19.00
2023-03-18T15:47:47.440Z,18.90
2023-03-18T15:50:26.207Z,18.70
2023-03-18T15:53:02.786Z,18.50
2023-03-18T15:55:33.253Z,18.40
2023-03-18T15:58:01.786Z,18.30
2023-03-18T16:00:30.327Z,18.20
2023-03-18T16:02:59.610Z,18.10
2023-03-18T16:05:29.499Z,17.90
2023-03-18T16:07:59.392Z,17.80
2023-03-18T16:10:27.790Z,17.70
2023-03-18T16:12:58.106Z,17.70
2023-03-18T16:15:26.444Z,17.50
2023-03-18T16:17:55.440Z,17.40
2023-03-18T16:20:27.575Z,17.30
2023-03-18T16:22:57.901Z,17.20
2023-03-18T16:25:26.945Z,17.10
2023-03-18T16:27:56.418Z,17.00
2023-03-18T16:30:25.901Z,16.90
2023-03-18T16:32:54.386Z,16.90
2023-03-18T16:35:23.326Z,16.80
2023-03-18T16:37:53.648Z,16.70
2023-03-18T16:40:24.325Z,16.70
2023-03-18T16:42:52.608Z,16.60
2023-03-18T16:45:22.240Z,16.50
2023-03-18T16:47:51.895Z,16.60
2023-03-18T16:50:22.036Z,16.50
2023-03-18T16:52:50.592Z,16.50
2023-03-18T16:55:21.926Z,16.50
2023-03-18T16:57:54.288Z,16.50
2023-03-18T17:00:23.820Z,16.50
2023-03-18T17:02:53.635Z,16.50
2023-03-18T17:05:22.383Z,16.50
2023-03-18T17:07:50.956Z,16.40
2023-03-18T17:10:20.327Z,16.40
2023-03-18T17:12:50.387Z,16.40
2023-03-18T17:15:20.677Z,16.40
2023-03-18T17:17:49.434Z,16.30
2023-03-18T17:20:18.156Z,16.30
2023-03-18T17:22:46.116Z,16.30
2023-03-18T17:25:14.176Z,16.30
2023-03-18T17:27:45.186Z,16.30
2023-03-18T17:30:17.108Z,16.20
2023-03-18T17:32:47.301Z,16.20
2023-03-18T17:35:17.472Z,16.20
2023-03-18T17:37:45.617Z,16.20
2023-03-18T17:40:17.298Z,16.20
2023-03-18T17:42:46.072Z,16.10
2023-03-18T17:45:22.331Z,16.10
2023-03-18T17:47:51.667Z,16.10
2023-03-18T17:50:20.644Z,16.00
2023-03-18T17:52:52.635Z,16.00
2023-03-18T17:55:22.655Z,16.00
2023-03-18T17:57:51.518Z,16.00
2023-03-18T18:00:21.643Z,15.90
2023-03-18T18:02:51.969Z,15.90
2023-03-18T18:05:21.250Z,15.90
2023-03-18T18:07:49.734Z,15.90
2023-03-18T18:10:19.466Z,15.90
2023-03-18T18:12:49.633Z,15.80
2023-03-18T18:15:19.189Z,15.80
2023-03-18T18:17:48.489Z,15.80
2023-03-18T18:20:18.258Z,15.70
2023-03-18T18:22:48.331Z,15.70
2023-03-18T18:25:18.554Z,15.70
2023-03-18T18:27:49.762Z,15.60
2023-03-18T18:30:18.973Z,15.60
2023-03-18T18:32:47.045Z,15.50
2023-03-18T18:35:20.504Z,15.50
2023-03-18T18:37:49.664Z,15.50
2023-03-18T18:40:18.119Z,15.40
2023-03-18T18:42:46.087Z,15.40
2023-03-18T18:45:16.736Z,15.40
2023-03-18T18:47:44.927Z,15.30
2023-03-18T18:50:16.674Z,15.30
2023-03-18T18:52:46.089Z,15.20
2023-03-18T18:55:14.108Z,15.20
2023-03-18T18:57:42.839Z,15.10
2023-03-18T19:00:17.549Z,15.00
2023-03-18T19:02:47.173Z,15.00
2023-03-18T19:05:16.463Z,15.00
2023-03-18T19:07:46.542Z,15.00
2023-03-18T19:10:15.779Z,14.90
2023-03-18T19:12:44.282Z,14.90
2023-03-18T19:15:15.368Z,14.80
2023-03-18T19:17:43.849Z,14.80
2023-03-18T19:20:20.396Z,14.80
2023-03-18T19:22:50.664Z,14.80
2023-03-18T19:25:19.642Z,14.80
2023-03-18T19:27:47.839Z,14.60
2023-03-18T19:30:20.900Z,14.60
2023-03-18T19:32:49.088Z,14.50
2023-03-18T19:35:17.541Z,14.40
2023-03-18T19:37:46.451Z,14.40
2023-03-18T19:40:22.616Z,14.30
2023-03-18T19:42:50.618Z,14.30
2023-03-18T19:45:18.981Z,14.20
2023-03-18T19:47:47.029Z,14.20
2023-03-18T19:50:15.408Z,14.20
2023-03-18T19:52:43.521Z,14.20
2023-03-18T19:55:13.606Z,14.10
2023-03-18T19:57:44.778Z,14.10
2023-03-18T20:00:19.664Z,14.00
2023-03-18T20:02:49.427Z,14.00
2023-03-18T20:05:18.946Z,13.90
2023-03-18T20:07:47.650Z,13.90
2023-03-18T20:10:15.768Z,13.90
2023-03-18T20:12:45.851Z,13.90
2023-03-18T20:15:16.250Z,13.90
2023-03-18T20:17:45.016Z,13.90
2023-03-18T20:20:14.457Z,13.90
2023-03-18T20:22:45.014Z,13.90
2023-03-18T20:25:18.220Z,13.90
2023-03-18T20:27:47.767Z,13.90
2023-03-18T20:30:22.230Z,13.90
2023-03-18T20:32:50.370Z,13.80
2023-03-18T20:35:19.333Z,13.80
2023-03-18T20:37:47.513Z,13.80
2023-03-18T20:40:20.202Z,13.80
2023-03-18T20:42:49.661Z,13.70
2023-03-18T20:45:17.987Z,13.70
2023-03-18T20:47:46.657Z,13.60
2023-03-18T20:50:15.582Z,13.60
2023-03-18T20:52:44.278Z,13.50
2023-03-18T20:55:20.353Z,13.50
2023-03-18T20:57:49.758Z,13.40
2023-03-18T21:00:19.657Z,13.50
2023-03-18T21:02:48.242Z,13.50
2023-03-18T21:05:16.356Z,13.50
2023-03-18T21:07:47.500Z,13.50
2023-03-18T21:10:19.453Z,13.40
2023-03-18T21:12:49.005Z,13.40
2023-03-18T21:15:18.430Z,13.40
2023-03-18T21:17:46.557Z,13.30
2023-03-18T21:20:22.164Z,13.30
2023-03-18T21:22:51.498Z,13.30
2023-03-18T21:25:21.160Z,13.30
2023-03-18T21:27:50.809Z,13.20
2023-03-18T21:30:19.470Z,13.20
2023-03-18T21:32:47.527Z,13.20
2023-03-18T21:35:19.370Z,13.20
2023-03-18T21:37:47.444Z,13.20
2023-03-18T21:40:16.405Z,13.20
2023-03-18T21:42:44.438Z,13.10
2023-03-18T21:45:19.476Z,13.10
2023-03-18T21:47:47.477Z,13.10
2023-03-18T21:50:22.185Z,13.00
2023-03-18T21:52:50.379Z,13.00
2023-03-18T21:55:18.396Z,12.90
2023-03-18T21:57:48.824Z,12.90
2023-03-18T22:00:20.420Z,12.80
2023-03-18T22:02:48.851Z,12.80
2023-03-18T22:05:18.263Z,12.70
2023-03-18T22:07:46.210Z,12.80
2023-03-18T22:10:16.041Z,12.70
2023-03-18T22:12:44.105Z,12.70
2023-03-18T22:15:27.285Z,12.60
2023-03-18T22:17:56.661Z,12.60
2023-03-18T22:20:24.642Z,12.50
2023-03-18T22:22:52.635Z,12.50
2023-03-18T22:25:25.817Z,12.40
2023-03-18T22:27:53.775Z,12.40
2023-03-18T22:30:21.766Z,12.40
2023-03-18T22:32:52.859Z,12.40
2023-03-18T22:35:23.210Z,12.30
2023-03-18T22:37:52.958Z,12.30
2023-03-18T22:40:24.434Z,12.30
2023-03-18T22:42:56.302Z,12.30
2023-03-18T22:45:25.358Z,12.20
2023-03-18T22:47:54.356Z,12.20
2023-03-18T22:50:25.054Z,12.20
2023-03-18T22:52:59.081Z,12.20
2023-03-18T22:55:28.288Z,12.20
2023-03-18T22:57:56.227Z,12.10
2023-03-18T23:00:25.815Z,12.10
2023-03-18T23:02:54.259Z,12.10
2023-03-18T23:05:24.530Z,12.00
2023-03-18T23:07:52.505Z,12.00
2023-03-18T23:10:21.096Z,12.00
2023-03-18T23:12:49.481Z,11.90
2023-03-18T23:15:18.641Z,11.90
2023-03-18T23:17:46.850Z,11.90
2023-03-18T23:20:16.079Z,11.90
2023-03-18T23:22:45.838Z,11.80
2023-03-18T23:25:15.639Z,11.80
2023-03-18T23:27:43.681Z,11.80
2023-03-18T23:30:14.492Z,11.80
2023-03-18T23:32:42.551Z,11.70
2023-03-18T23:35:11.468Z,11.70
2023-03-18T23:37:39.846Z,11.60
2023-03-18T23:40:10.106Z,11.60
2023-03-18T23:42:38.102Z,11.60
2023-03-18T23:45:06.944Z,11.50
2023-03-18T23:47:37.308Z,11.50
2023-03-18T23:50:05.711Z,11.50
2023-03-18T23:52:33.690Z,11.40
2023-03-18T23:55:01.863Z,11.30
2023-03-18T23:57:31.195Z,11.30
2023-03-18T23:59:59.153Z,11.30
